Funchalense 5 — CSKN — position and weather

sailwx.info

Track history (hours):
 
Tides and Currents Weather Stations Pressure Air Temp Water Temp Dewpoint Dewpoint Depression Visibility Wind Speed Wind Dir Waves Ship Positions

Funchalense 5

Last reported at 2016-Apr-21 02:22 UTC. Time now 2016-May-27 20:12 UTC.
Position N 38°54' W 025°56'.
Warning: this ship's position is 36 days out of date.

Length 127 m; draft 6.2 m.

Type: Ship. MMSI: 255804250.

Date/timePositionNaut miles runAvg speedWind from/ knotsBaromVisibWave heightAir tempDewpointWater temp
2016-Apr-21 02:22N 38°54' W 025°56'3015.9
2016-Apr-21 00:29N 38°48' W 026°33'1515.7
2016-Apr-20 23:33N 38°45' W 026°52'9 0.6
2016-Apr-20 07:33N 38°43' W 027°03'5 4.6
2016-Apr-20 06:24N 38°47' W 026°58'1111.9
2016-Apr-20 05:27N 38°37' W 026°52'1314.2
2016-Apr-20 04:33N 38°27' W 026°41'1414.3
2016-Apr-20 03:33N 38°17' W 026°28'1414.1
2016-Apr-20 02:33N 38°07' W 026°16'1414.1
2016-Apr-20 01:33N 37°56' W 026°03'1414.2
2016-Apr-20 00:33N 37°47' W 025°50'9 8.5
2016-Apr-19 23:32N 37°44' W 025°40'0 0.0
2016-Apr-19 22:32N 37°44' W 025°40'0 0.0
2016-Apr-19 21:31N 37°44' W 025°40'0 0.0
2016-Apr-19 20:31N 37°44' W 025°40'0 0.0
2016-Apr-19 19:33N 37°44' W 025°40'0 0.0
2016-Apr-19 18:33N 37°44' W 025°40'0 0.0
2016-Apr-19 17:32N 37°44' W 025°40'0 0.0
2016-Apr-19 16:32N 37°44' W 025°40'0 0.0
2016-Apr-19 15:32N 37°44' W 025°40'0 0.0
2016-Apr-19 14:31N 37°44' W 025°40'0 0.0
2016-Apr-19 13:31N 37°44' W 025°40'0 0.0
2016-Apr-19 12:33N 37°44' W 025°40'0 0.0
2016-Apr-19 11:33N 37°44' W 025°40'0 0.0
2016-Apr-19 10:32N 37°44' W 025°40'0 0.0
2016-Apr-19 09:32N 37°44' W 025°40'0 0.0
2016-Apr-19 08:31N 37°44' W 025°40'0 0.0
2016-Apr-19 07:31N 37°44' W 025°40'0 0.0
2016-Apr-19 06:31N 37°44' W 025°40'0 0.0
2016-Apr-19 05:33N 37°44' W 025°40'0 0.0
2016-Apr-19 04:33N 37°44' W 025°40'0 0.0
2016-Apr-19 03:32N 37°44' W 025°40'0 0.0
2016-Apr-19 02:32N 37°44' W 025°40'0 0.0
2016-Apr-19 01:32N 37°44' W 025°40'0 0.0
2016-Apr-19 00:31N 37°44' W 025°40'0 0.0
2016-Apr-18 23:33N 37°44' W 025°40'0 0.0
2016-Apr-18 22:32N 37°44' W 025°40'0 0.0
2016-Apr-18 21:32N 37°44' W 025°40'0 0.0
2016-Apr-18 20:31N 37°44' W 025°40'0 0.0
2016-Apr-18 19:31N 37°44' W 025°40'0 0.0
2016-Apr-18 18:34N 37°44' W 025°40'0 0.0
2016-Apr-18 17:33N 37°44' W 025°40'0 0.0
2016-Apr-18 16:33N 37°44' W 025°40'0 0.0
2016-Apr-18 15:32N 37°44' W 025°40'0 0.0
2016-Apr-18 14:32N 37°44' W 025°40'0 0.0
2016-Apr-18 13:31N 37°44' W 025°40'1 0.6
2016-Apr-18 12:33N 37°44' W 025°39'1212.2
2016-Apr-18 11:33N 37°40' W 025°24'1717.0
2016-Apr-18 10:33N 37°43' W 025°03'1716.8
2016-Apr-18 09:33N 37°47' W 024°42'1717.1
2016-Apr-18 08:33N 37°50' W 024°21'1717.3
2016-Apr-18 07:33N 37°53' W 023°60'64816.5
2016-Apr-16 16:17N 38°32' W 010°17'1216.0
2016-Apr-16 15:33N 38°33' W 010°02'1616.0
2016-Apr-16 14:33N 38°35' W 009°42'1615.8
2016-Apr-16 13:34N 38°38' W 009°22'1312.7
2016-Apr-16 12:33N 38°43' W 009°07'0 0.2
2016-Apr-16 10:10N 38°43' W 009°07'0 0.0
2016-Apr-16 09:33N 38°43' W 009°07'0 0.0
2016-Apr-16 08:27N 38°43' W 009°07'0 0.1
2016-Apr-16 07:33N 38°43' W 009°07'0 0.0
2016-Apr-16 06:32N 38°43' W 009°07'0 0.0
2016-Apr-16 05:26N 38°43' W 009°07'0 0.0
2016-Apr-16 04:28N 38°43' W 009°07'0 0.0
2016-Apr-16 03:31N 38°43' W 009°07'0 0.0
2016-Apr-16 02:24N 38°43' W 009°07'0 0.0
2016-Apr-16 01:33N 38°43' W 009°07'0 0.0
2016-Apr-16 00:30N 38°43' W 009°07'0 0.0
2016-Apr-15 23:29N 38°43' W 009°07'0 0.0
2016-Apr-15 22:29N 38°43' W 009°07'0 0.0
2016-Apr-15 21:22N 38°43' W 009°07'0 0.1
2016-Apr-15 20:30N 38°43' W 009°07'0 0.0
2016-Apr-15 19:15N 38°43' W 009°07'0 0.0
2016-Apr-15 18:23N 38°43' W 009°07'0 0.0
2016-Apr-15 17:23N 38°43' W 009°07'0 0.0
2016-Apr-15 16:28N 38°43' W 009°07'0 0.0
2016-Apr-15 15:31N 38°43' W 009°07'0 0.0
2016-Apr-15 14:30N 38°43' W 009°07'0 0.0
2016-Apr-15 13:33N 38°43' W 009°07'0 0.0
2016-Apr-15 12:33N 38°43' W 009°07'0 0.0
2016-Apr-15 11:32N 38°43' W 009°07'0 0.0
2016-Apr-15 10:26N 38°43' W 009°07'0 0.0
2016-Apr-15 09:28N 38°43' W 009°07'0 0.1
2016-Apr-15 08:31N 38°43' W 009°07'0 0.0
2016-Apr-15 07:33N 38°43' W 009°07'0 0.0
2016-Apr-15 06:30N 38°43' W 009°07'0 0.0
2016-Apr-15 05:24N 38°43' W 009°07'0 0.0
2016-Apr-15 04:32N 38°43' W 009°07'0 0.0
2016-Apr-15 03:29N 38°43' W 009°07'0 0.0
2016-Apr-15 02:31N 38°43' W 009°07'0 0.0
2016-Apr-15 01:31N 38°43' W 009°07'0 0.0
2016-Apr-15 00:27N 38°43' W 009°07'0 0.0
2016-Apr-14 23:33N 38°43' W 009°07'0 0.0
2016-Apr-14 22:33N 38°43' W 009°07'0 0.0
2016-Apr-14 21:32N 38°43' W 009°07'0 0.0
2016-Apr-14 20:20N 38°43' W 009°07'0 0.0
2016-Apr-14 19:33N 38°43' W 009°07'0 0.0
2016-Apr-14 18:32N 38°43' W 009°07'0 0.0
2016-Apr-14 17:16N 38°43' W 009°07'0 0.0
2016-Apr-14 16:28N 38°43' W 009°07'0 0.0
2016-Apr-14 15:27N 38°43' W 009°07'0 0.0
2016-Apr-14 14:33N 38°43' W 009°07'0 0.0
2016-Apr-14 13:30N 38°43' W 009°07'0 0.0
2016-Apr-14 12:29N 38°43' W 009°07'0 0.0
2016-Apr-14 11:32N 38°43' W 009°07'0 0.0
2016-Apr-14 10:28N 38°43' W 009°07'0 0.0
2016-Apr-14 09:31N 38°43' W 009°07'0 0.0
2016-Apr-14 08:03N 38°43' W 009°07'0 0.0
2016-Apr-14 07:30N 38°43' W 009°07'0 0.0
2016-Apr-14 06:33N 38°43' W 009°07'0 0.0
2016-Apr-14 05:32N 38°43' W 009°07'0 0.0
2016-Apr-14 04:32N 38°43' W 009°07'0 0.0
2016-Apr-14 03:31N 38°43' W 009°07'0 0.0
2016-Apr-14 02:28N 38°43' W 009°07'0 0.0
2016-Apr-14 01:33N 38°43' W 009°07'0 0.0
2016-Apr-14 00:30N 38°43' W 009°07'0 0.1
2016-Apr-13 23:33N 38°43' W 009°07'1010.0
2016-Apr-13 22:33N 38°40' W 009°19'1716.8
2016-Apr-13 21:33N 38°30' W 009°36'1717.1
2016-Apr-13 20:33N 38°19' W 009°53'  
Track history (hours):
 
Tides and Currents Weather Stations Pressure Air Temp Water Temp Dewpoint Dewpoint Depression Visibility Wind Speed Wind Dir Waves Ship Positions

Funchalense 5

Last reported at 2016-Apr-21 02:22 UTC. Time now 2016-May-27 20:12 UTC.
Position N 38°54' W 025°56'.
Warning: this ship's position is 36 days out of date.

Length 127 m; draft 6.2 m.

Type: Ship. MMSI: 255804250.

Date/timePositionNaut miles runAvg speedWind from/ knotsBaromVisibWave heightAir tempDewpointWater temp
2016-Apr-21 02:22N 38°54' W 025°56'3015.9
2016-Apr-21 00:29N 38°48' W 026°33'1515.7
2016-Apr-20 23:33N 38°45' W 026°52'9 0.6
2016-Apr-20 07:33N 38°43' W 027°03'5 4.6
2016-Apr-20 06:24N 38°47' W 026°58'1111.9
2016-Apr-20 05:27N 38°37' W 026°52'1314.2
2016-Apr-20 04:33N 38°27' W 026°41'1414.3
2016-Apr-20 03:33N 38°17' W 026°28'1414.1
2016-Apr-20 02:33N 38°07' W 026°16'1414.1
2016-Apr-20 01:33N 37°56' W 026°03'1414.2
2016-Apr-20 00:33N 37°47' W 025°50'9 8.5
2016-Apr-19 23:32N 37°44' W 025°40'0 0.0
2016-Apr-19 22:32N 37°44' W 025°40'0 0.0
2016-Apr-19 21:31N 37°44' W 025°40'0 0.0
2016-Apr-19 20:31N 37°44' W 025°40'0 0.0
2016-Apr-19 19:33N 37°44' W 025°40'0 0.0
2016-Apr-19 18:33N 37°44' W 025°40'0 0.0
2016-Apr-19 17:32N 37°44' W 025°40'0 0.0
2016-Apr-19 16:32N 37°44' W 025°40'0 0.0
2016-Apr-19 15:32N 37°44' W 025°40'0 0.0
2016-Apr-19 14:31N 37°44' W 025°40'0 0.0
2016-Apr-19 13:31N 37°44' W 025°40'0 0.0
2016-Apr-19 12:33N 37°44' W 025°40'0 0.0
2016-Apr-19 11:33N 37°44' W 025°40'0 0.0
2016-Apr-19 10:32N 37°44' W 025°40'0 0.0
2016-Apr-19 09:32N 37°44' W 025°40'0 0.0
2016-Apr-19 08:31N 37°44' W 025°40'0 0.0
2016-Apr-19 07:31N 37°44' W 025°40'0 0.0
2016-Apr-19 06:31N 37°44' W 025°40'0 0.0
2016-Apr-19 05:33N 37°44' W 025°40'0 0.0
2016-Apr-19 04:33N 37°44' W 025°40'0 0.0
2016-Apr-19 03:32N 37°44' W 025°40'0 0.0
2016-Apr-19 02:32N 37°44' W 025°40'0 0.0
2016-Apr-19 01:32N 37°44' W 025°40'0 0.0
2016-Apr-19 00:31N 37°44' W 025°40'0 0.0
2016-Apr-18 23:33N 37°44' W 025°40'0 0.0
2016-Apr-18 22:32N 37°44' W 025°40'0 0.0
2016-Apr-18 21:32N 37°44' W 025°40'0 0.0
2016-Apr-18 20:31N 37°44' W 025°40'0 0.0
2016-Apr-18 19:31N 37°44' W 025°40'0 0.0
2016-Apr-18 18:34N 37°44' W 025°40'0 0.0
2016-Apr-18 17:33N 37°44' W 025°40'0 0.0
2016-Apr-18 16:33N 37°44' W 025°40'0 0.0
2016-Apr-18 15:32N 37°44' W 025°40'0 0.0
2016-Apr-18 14:32N 37°44' W 025°40'0 0.0
2016-Apr-18 13:31N 37°44' W 025°40'1 0.6
2016-Apr-18 12:33N 37°44' W 025°39'1212.2
2016-Apr-18 11:33N 37°40' W 025°24'1717.0
2016-Apr-18 10:33N 37°43' W 025°03'1716.8
2016-Apr-18 09:33N 37°47' W 024°42'1717.1
2016-Apr-18 08:33N 37°50' W 024°21'1717.3
2016-Apr-18 07:33N 37°53' W 023°60'64816.5
2016-Apr-16 16:17N 38°32' W 010°17'1216.0
2016-Apr-16 15:33N 38°33' W 010°02'1616.0
2016-Apr-16 14:33N 38°35' W 009°42'1615.8
2016-Apr-16 13:34N 38°38' W 009°22'1312.7
2016-Apr-16 12:33N 38°43' W 009°07'0 0.2
2016-Apr-16 10:10N 38°43' W 009°07'0 0.0
2016-Apr-16 09:33N 38°43' W 009°07'0 0.0
2016-Apr-16 08:27N 38°43' W 009°07'0 0.1
2016-Apr-16 07:33N 38°43' W 009°07'0 0.0
2016-Apr-16 06:32N 38°43' W 009°07'0 0.0
2016-Apr-16 05:26N 38°43' W 009°07'0 0.0
2016-Apr-16 04:28N 38°43' W 009°07'0 0.0
2016-Apr-16 03:31N 38°43' W 009°07'0 0.0
2016-Apr-16 02:24N 38°43' W 009°07'0 0.0
2016-Apr-16 01:33N 38°43' W 009°07'0 0.0
2016-Apr-16 00:30N 38°43' W 009°07'0 0.0
2016-Apr-15 23:29N 38°43' W 009°07'0 0.0
2016-Apr-15 22:29N 38°43' W 009°07'0 0.0
2016-Apr-15 21:22N 38°43' W 009°07'0 0.1
2016-Apr-15 20:30N 38°43' W 009°07'0 0.0
2016-Apr-15 19:15N 38°43' W 009°07'0 0.0
2016-Apr-15 18:23N 38°43' W 009°07'0 0.0
2016-Apr-15 17:23N 38°43' W 009°07'0 0.0
2016-Apr-15 16:28N 38°43' W 009°07'0 0.0
2016-Apr-15 15:31N 38°43' W 009°07'0 0.0
2016-Apr-15 14:30N 38°43' W 009°07'0 0.0
2016-Apr-15 13:33N 38°43' W 009°07'0 0.0
2016-Apr-15 12:33N 38°43' W 009°07'0 0.0
2016-Apr-15 11:32N 38°43' W 009°07'0 0.0
2016-Apr-15 10:26N 38°43' W 009°07'0 0.0
2016-Apr-15 09:28N 38°43' W 009°07'0 0.1
2016-Apr-15 08:31N 38°43' W 009°07'0 0.0
2016-Apr-15 07:33N 38°43' W 009°07'0 0.0
2016-Apr-15 06:30N 38°43' W 009°07'0 0.0
2016-Apr-15 05:24N 38°43' W 009°07'0 0.0
2016-Apr-15 04:32N 38°43' W 009°07'0 0.0
2016-Apr-15 03:29N 38°43' W 009°07'0 0.0
2016-Apr-15 02:31N 38°43' W 009°07'0 0.0
2016-Apr-15 01:31N 38°43' W 009°07'0 0.0
2016-Apr-15 00:27N 38°43' W 009°07'0 0.0
2016-Apr-14 23:33N 38°43' W 009°07'0 0.0
2016-Apr-14 22:33N 38°43' W 009°07'0 0.0
2016-Apr-14 21:32N 38°43' W 009°07'0 0.0
2016-Apr-14 20:20N 38°43' W 009°07'0 0.0
2016-Apr-14 19:33N 38°43' W 009°07'0 0.0
2016-Apr-14 18:32N 38°43' W 009°07'0 0.0
2016-Apr-14 17:16N 38°43' W 009°07'0 0.0
2016-Apr-14 16:28N 38°43' W 009°07'0 0.0
2016-Apr-14 15:27N 38°43' W 009°07'0 0.0
2016-Apr-14 14:33N 38°43' W 009°07'0 0.0
2016-Apr-14 13:30N 38°43' W 009°07'0 0.0
2016-Apr-14 12:29N 38°43' W 009°07'0 0.0
2016-Apr-14 11:32N 38°43' W 009°07'0 0.0
2016-Apr-14 10:28N 38°43' W 009°07'0 0.0
2016-Apr-14 09:31N 38°43' W 009°07'0 0.0
2016-Apr-14 08:03N 38°43' W 009°07'0 0.0
2016-Apr-14 07:30N 38°43' W 009°07'0 0.0
2016-Apr-14 06:33N 38°43' W 009°07'0 0.0
2016-Apr-14 05:32N 38°43' W 009°07'0 0.0
2016-Apr-14 04:32N 38°43' W 009°07'0 0.0
2016-Apr-14 03:31N 38°43' W 009°07'0 0.0
2016-Apr-14 02:28N 38°43' W 009°07'0 0.0
2016-Apr-14 01:33N 38°43' W 009°07'0 0.0
2016-Apr-14 00:30N 38°43' W 009°07'0 0.1
2016-Apr-13 23:33N 38°43' W 009°07'1010.0
2016-Apr-13 22:33N 38°40' W 009°19'1716.8
2016-Apr-13 21:33N 38°30' W 009°36'1717.1
2016-Apr-13 20:33N 38°19' W 009°53'  

Dump ship's entire track history